Time;durP1;ratioP1;P1;durP2;ratioP2;P2;SDS_P1;SDS_P2;PMS_P1;PMS_P2;Temp;Humidity;BMP_temperature;BMP_pressure;BME280_temperature;BME280_humidity;BME280_pressure;Samples;Min_cycle;Max_cycle;Signal;HPM_P1;HPM_P2
2021/11/01 00:00:20;;;;;;;2.23;0.43;;;;;;;;;;10373150;28;20032;-62
2021/11/01 00:05:18;;;;;;;1.03;0.27;;;;;;;;;;10373212;28;20530;-61
2021/11/01 00:10:16;;;;;;;3.35;0.50;;;;;;;;;;10365759;28;20097;-61
2021/11/01 00:15:14;;;;;;;2.67;0.70;;;;;;;;;;10374172;28;20095;-62
2021/11/01 00:20:12;;;;;;;2.00;0.60;;;;;;;;;;10376271;28;20395;-63
2021/11/01 00:25:09;;;;;;;2.73;0.70;;;;;;;;;;10370247;28;20036;-61
2021/11/01 00:30:08;;;;;;;0.63;0.63;;;;;;;;;;10368945;28;20528;-62
2021/11/01 00:35:05;;;;;;;1.25;1.15;;;;;;;;;;10377146;28;20313;-62
2021/11/01 00:40:03;;;;;;;5.43;1.27;;;;;;;;;;10369050;28;20123;-62
2021/11/01 00:45:01;;;;;;;1.47;0.57;;;;;;;;;;10363614;28;20037;-63
2021/11/01 00:49:59;;;;;;;7.57;0.90;;;;;;;;;;10375023;28;20055;-64
2021/11/01 00:55:05;;;;;;;1.60;0.55;;;;;;;;;;10381762;28;20033;-62
2021/11/01 01:00:03;;;;;;;3.40;1.02;;;;;;;;;;10375403;28;20049;-63
2021/11/01 01:05:02;;;;;;;7.03;0.80;;;;;;;;;;10381462;28;20036;-63
2021/11/01 01:09:59;;;;;;;9.27;1.50;;;;;;;;;;10367091;28;20294;-63
2021/11/01 01:14:59;;;;;;;6.43;1.03;;;;;;;;;;10376815;28;20031;-63
2021/11/01 01:20:08;;;;;;;6.53;1.02;;;;;;;;;;10382670;28;20043;-63
2021/11/01 01:25:17;;;;;;;6.45;1.02;;;;;;;;;;10377912;28;20036;-65
2021/11/01 01:30:16;;;;;;;7.40;1.30;;;;;;;;;;10370280;28;20062;-64
2021/11/01 01:35:14;;;;;;;5.82;1.13;;;;;;;;;;10397975;28;20041;-62
2021/11/01 01:40:12;;;;;;;5.45;0.98;;;;;;;;;;10369474;28;20040;-63
2021/11/01 01:45:09;;;;;;;6.97;1.67;;;;;;;;;;10387851;28;20029;-62
2021/11/01 01:50:08;;;;;;;5.53;1.37;;;;;;;;;;10373769;28;20033;-63
2021/11/01 01:55:07;;;;;;;13.10;1.85;;;;;;;;;;10387063;28;20348;-63
2021/11/01 02:00:09;;;;;;;6.35;2.17;;;;;;;;;;10378308;28;20041;-64
2021/11/01 02:05:07;;;;;;;10.27;1.65;;;;;;;;;;10394693;28;20044;-63
2021/11/01 02:10:11;;;;;;;5.33;1.40;;;;;;;;;;10378067;28;20557;-63
2021/11/01 02:15:13;;;;;;;3.67;0.90;;;;;;;;;;10388413;28;20135;-64
2021/11/01 02:20:14;;;;;;;5.78;1.25;;;;;;;;;;10382461;28;20056;-65
2021/11/01 02:25:38;;;;;;;7.05;1.33;;;;;;;;;;10380098;28;20043;-64
2021/11/01 02:30:39;;;;;;;3.58;1.05;;;;;;;;;;10371729;28;20040;-64
2021/11/01 02:35:36;;;;;;;7.72;1.27;;;;;;;;;;10392999;28;20058;-64
2021/11/01 02:40:34;;;;;;;5.03;1.03;;;;;;;;;;10370674;28;20058;-66
2021/11/01 02:45:33;;;;;;;3.05;0.88;;;;;;;;;;10385583;28;20059;-64
2021/11/01 02:50:32;;;;;;;6.20;0.68;;;;;;;;;;10379486;28;20575;-63
2021/11/01 02:55:29;;;;;;;3.72;1.25;;;;;;;;;;10382177;28;20572;-64
2021/11/01 03:00:28;;;;;;;3.90;0.77;;;;;;;;;;10380360;28;20390;-64
2021/11/01 03:05:27;;;;;;;9.63;1.52;;;;;;;;;;10382805;28;20060;-64
2021/11/01 03:10:25;;;;;;;5.18;1.30;;;;;;;;;;10392692;28;20036;-65
2021/11/01 03:15:24;;;;;;;3.65;1.67;;;;;;;;;;10389755;28;20039;-63
2021/11/01 03:20:29;;;;;;;3.53;1.48;;;;;;;;;;10387110;28;20072;-64
2021/11/01 03:25:30;;;;;;;7.30;1.23;;;;;;;;;;10394526;28;20052;-64
2021/11/01 03:30:29;;;;;;;5.82;0.90;;;;;;;;;;10382121;28;20032;-64
2021/11/01 03:35:28;;;;;;;8.00;1.17;;;;;;;;;;10383721;28;20086;-63
2021/11/01 03:40:28;;;;;;;9.77;1.10;;;;;;;;;;10371820;28;20054;-64
2021/11/01 03:45:27;;;;;;;9.05;1.65;;;;;;;;;;10394019;28;20347;-63
2021/11/01 03:55:28;;;;;;;8.30;1.55;;;;;;;;;;10359510;28;20033;-64
2021/11/01 04:00:27;;;;;;;11.88;2.47;;;;;;;;;;10368195;28;20123;-64
2021/11/01 04:05:25;;;;;;;7.13;1.95;;;;;;;;;;10374096;28;20032;-64
2021/11/01 04:10:23;;;;;;;12.73;2.60;;;;;;;;;;10365979;28;20078;-64
2021/11/01 04:15:24;;;;;;;12.87;1.50;;;;;;;;;;10366861;28;20033;-64
2021/11/01 04:25:21;;;;;;;7.27;1.63;;;;;;;;;;10365043;28;20040;-61
2021/11/01 04:30:20;;;;;;;16.58;2.15;;;;;;;;;;10366372;28;20535;-62
2021/11/01 04:35:26;;;;;;;6.20;1.92;;;;;;;;;;10362281;28;20037;-63
2021/11/01 04:55:54;;;;;;;8.90;2.22;;;;;;;;;;10364541;28;20038;-60
2021/11/01 05:00:52;;;;;;;10.93;2.70;;;;;;;;;;10350806;28;20053;-63
2021/11/01 05:05:51;;;;;;;6.97;2.42;;;;;;;;;;10375799;28;20056;-62
2021/11/01 05:10:51;;;;;;;14.60;2.88;;;;;;;;;;10373119;28;20044;-59
2021/11/01 05:15:53;;;;;;;6.28;1.90;;;;;;;;;;10368364;28;20040;-62
2021/11/01 05:26:16;;;;;;;12.55;2.47;;;;;;;;;;10359400;28;20044;-60
2021/11/01 05:31:23;;;;;;;5.80;1.80;;;;;;;;;;10366385;28;20521;-62
2021/11/01 05:36:21;;;;;;;14.73;2.70;;;;;;;;;;10345347;28;20041;-60
2021/11/01 05:41:19;;;;;;;7.87;2.20;;;;;;;;;;10362601;28;20490;-62
2021/11/01 05:46:17;;;;;;;9.25;2.42;;;;;;;;;;10355183;28;20667;-61
2021/11/01 05:51:16;;;;;;;7.10;1.60;;;;;;;;;;10371129;28;20563;-61
2021/11/01 06:17:07;;;;;;;12.07;2.15;;;;;;;;;;10358333;28;20186;-61
2021/11/01 06:22:05;;;;;;;8.13;2.23;;;;;;;;;;10361426;28;20179;-62
2021/11/01 06:27:03;;;;;;;6.67;1.57;;;;;;;;;;10364197;28;20036;-61
2021/11/01 06:32:45;;;;;;;9.93;2.53;;;;;;;;;;10355999;28;20578;-61
2021/11/01 06:58:41;;;;;;;7.10;1.38;;;;;;;;;;10357727;28;20044;-60
2021/11/01 07:15:26;;;;;;;8.98;2.05;;;;;;;;;;10306347;28;19912;-61
2021/11/01 09:20:10;;;;;;;5.90;1.77;;;;;;;;;;10356730;28;20094;-61
2021/11/01 09:25:23;;;;;;;5.32;1.85;;;;;;;;;;10366250;28;20575;-61
2021/11/01 09:40:58;;;;;;;5.57;1.67;;;;;;;;;;10358364;28;20094;-61
2021/11/01 09:45:56;;;;;;;7.45;1.20;;;;;;;;;;10352993;28;20047;-60
2021/11/01 09:50:54;;;;;;;4.78;2.20;;;;;;;;;;10357590;28;20568;-61
2021/11/01 10:00:58;;;;;;;4.45;1.65;;;;;;;;;;10357356;28;20040;-61
2021/11/01 10:05:56;;;;;;;4.77;1.73;;;;;;;;;;10358447;28;20041;-62
2021/11/01 10:10:53;;;;;;;;;;;;;;;;;;10369054;28;20704;-64
2021/11/01 10:21:12;;;;;;;3.75;1.27;;;;;;;;;;10362883;28;20514;-58
2021/11/01 10:26:18;;;;;;;1.50;1.05;;;;;;;;;;10361687;28;20509;-60
2021/11/01 10:31:19;;;;;;;2.38;1.25;;;;;;;;;;10352942;28;20429;-63
2021/11/01 10:36:30;;;;;;;4.03;1.42;;;;;;;;;;10355634;28;20095;-62
2021/11/01 10:41:40;;;;;;;7.28;1.52;;;;;;;;;;10369362;28;20063;-60
2021/11/01 11:13:05;;;;;;;6.43;1.58;;;;;;;;;;10358641;28;20086;-61
2021/11/01 11:28:50;;;;;;;1.75;1.10;;;;;;;;;;10356398;28;20045;-62
2021/11/01 11:49:25;;;;;;;4.53;1.20;;;;;;;;;;10363405;28;20036;-61
2021/11/01 11:54:30;;;;;;;2.25;0.77;;;;;;;;;;10360243;28;20032;-60
2021/11/01 11:59:32;;;;;;;2.33;0.88;;;;;;;;;;10376051;28;20253;-60
2021/11/01 12:04:34;;;;;;;5.28;1.00;;;;;;;;;;10365600;28;20509;-61
2021/11/01 12:09:45;;;;;;;1.40;0.70;;;;;;;;;;10364475;28;20040;-63
2021/11/01 12:19:50;;;;;;;1.83;1.13;;;;;;;;;;10368019;28;20097;-60
2021/11/01 12:24:49;;;;;;;1.25;1.13;;;;;;;;;;10368873;28;20571;-60
2021/11/01 12:29:48;;;;;;;1.58;0.77;;;;;;;;;;10376001;28;20047;-61
2021/11/01 12:35:04;;;;;;;0.70;0.70;;;;;;;;;;10377346;28;20132;-60
2021/11/01 12:40:20;;;;;;;3.50;0.77;;;;;;;;;;10363528;28;20506;-61
2021/11/01 13:01:12;;;;;;;1.23;0.30;;;;;;;;;;10380146;28;20055;-61
2021/11/01 13:06:18;;;;;;;0.85;0.40;;;;;;;;;;10375422;28;20058;-63
2021/11/01 13:21:46;;;;;;;1.23;0.68;;;;;;;;;;10381480;28;20052;-63
2021/11/01 13:37:36;;;;;;;6.25;0.90;;;;;;;;;;10365801;28;20036;-62
2021/11/01 13:42:34;;;;;;;3.65;0.90;;;;;;;;;;10384827;28;20398;-63
2021/11/01 13:47:42;;;;;;;4.53;1.08;;;;;;;;;;10372341;28;20047;-63
2021/11/01 13:52:41;;;;;;;3.63;0.63;;;;;;;;;;10353586;28;20410;-64
2021/11/01 13:57:55;;;;;;;3.13;0.60;;;;;;;;;;10364099;28;20086;-61
2021/11/01 14:13:50;;;;;;;1.15;0.60;;;;;;;;;;10362591;28;20040;-62
2021/11/01 15:12:20;;;;;;;6.32;1.58;;;;;;;;;;10354897;28;20086;-62
2021/11/01 16:18:59;;;;;;;2.53;0.75;;;;;;;;;;10369857;28;20079;-63
2021/11/01 16:23:56;;;;;;;0.30;0.30;;;;;;;;;;10374025;28;20079;-62
2021/11/01 16:28:59;;;;;;;0.50;0.50;;;;;;;;;;10378045;28;20028;-62
2021/11/01 16:34:04;;;;;;;1.30;0.50;;;;;;;;;;10360927;28;20135;-61
2021/11/01 16:39:02;;;;;;;1.38;0.85;;;;;;;;;;10371337;28;20262;-63
2021/11/01 16:44:04;;;;;;;0.77;0.50;;;;;;;;;;10372537;28;20572;-64
2021/11/01 16:49:02;;;;;;;2.38;0.73;;;;;;;;;;10378876;28;20093;-64
2021/11/01 16:54:00;;;;;;;0.90;0.90;;;;;;;;;;10373954;28;20044;-64
2021/11/01 16:59:07;;;;;;;0.93;0.90;;;;;;;;;;10375071;28;20468;-63
2021/11/01 17:04:09;;;;;;;3.50;1.13;;;;;;;;;;10378135;28;20039;-63
2021/11/01 17:25:09;;;;;;;1.67;1.52;;;;;;;;;;10376513;28;20865;-61
2021/11/01 18:54:24;;;;;;;1.92;0.93;;;;;;;;;;10375673;28;20117;-64
2021/11/01 18:59:23;;;;;;;5.32;1.40;;;;;;;;;;10377766;28;20135;-64
2021/11/01 19:04:25;;;;;;;3.95;1.75;;;;;;;;;;10369745;28;20048;-60
2021/11/01 19:09:44;;;;;;;6.00;1.90;;;;;;;;;;10373764;28;20073;-61
2021/11/01 19:15:40;;;;;;;8.90;2.45;;;;;;;;;;10367490;28;20686;-61
2021/11/01 20:08:19;;;;;;;2.50;1.50;;;;;;;;;;10346688;28;20113;-61
2021/11/01 21:27:23;;;;;;;9.23;1.63;;;;;;;;;;10361639;28;20071;-61
2021/11/01 21:32:21;;;;;;;3.42;1.80;;;;;;;;;;10390195;28;20522;-63
2021/11/01 21:37:19;;;;;;;7.07;1.20;;;;;;;;;;10384031;27;20055;-63
2021/11/01 21:42:16;;;;;;;2.30;1.77;;;;;;;;;;10364537;28;20025;-62
2021/11/01 21:47:14;;;;;;;3.60;1.70;;;;;;;;;;10368041;28;20029;-62
2021/11/01 21:52:13;;;;;;;4.07;1.67;;;;;;;;;;10355887;28;20116;-62
2021/11/01 22:39:29;;;;;;;3.72;1.67;;;;;;;;;;10373404;28;20044;-60
2021/11/01 22:44:41;;;;;;;7.55;1.92;;;;;;;;;;10373386;28;20032;-61
2021/11/01 23:00:20;;;;;;;1.70;0.93;;;;;;;;;;10354793;28;20123;-61
2021/11/01 23:31:37;;;;;;;4.47;1.45;;;;;;;;;;10360224;28;20071;-59
2021/11/01 23:36:36;;;;;;;1.30;1.17;;;;;;;;;;10357565;28;20151;-59
2021/11/01 23:41:34;;;;;;;6.13;1.63;;;;;;;;;;10352726;28;20128;-59
2021/11/01 23:46:32;;;;;;;6.95;2.00;;;;;;;;;;10363087;28;20028;-61
2021/11/01 23:51:37;;;;;;;1.52;0.80;;;;;;;;;;10360970;28;20051;-59
2021/11/01 23:56:35;;;;;;;2.30;1.45;;;;;;;;;;10357893;28;20036;-59
